Time;durP1;ratioP1;P1;durP2;ratioP2;P2;SDS_P1;SDS_P2;PMS_P1;PMS_P2;Temp;Humidity;BMP_temperature;BMP_pressure;BME280_temperature;BME280_humidity;BME280_pressure;Samples;Min_cycle;Max_cycle;Signal;HPM_P1;HPM_P2
2020/05/03 00:02:04;;;;;;;1.61;1.51;;;;;;;18.95;41.59;100558.45;;;;-51
2020/05/03 00:05:04;;;;;;;1.71;1.61;;;;;;;18.95;41.55;100566.48;;;;-51
2020/05/03 00:08:04;;;;;;;1.79;1.69;;;;;;;18.94;41.59;100570.78;;;;-51
2020/05/03 00:11:04;;;;;;;1.73;1.61;;;;;;;18.93;41.58;100573.75;;;;-51
2020/05/03 00:14:04;;;;;;;1.71;1.61;;;;;;;18.93;41.59;100576.09;;;;-51
2020/05/03 00:17:04;;;;;;;1.73;1.63;;;;;;;18.92;41.59;100573.70;;;;-51
2020/05/03 00:20:04;;;;;;;1.81;1.64;;;;;;;18.92;41.54;100574.81;;;;-51
2020/05/03 00:23:04;;;;;;;1.81;1.69;;;;;;;18.92;41.56;100579.89;;;;-51
2020/05/03 00:26:03;;;;;;;1.80;1.70;;;;;;;18.91;41.54;100574.89;;;;-52
2020/05/03 00:29:04;;;;;;;1.91;1.72;;;;;;;18.91;41.59;100577.83;;;;-50
2020/05/03 00:32:04;;;;;;;1.79;1.69;;;;;;;18.91;41.57;100579.45;;;;-51
2020/05/03 00:35:04;;;;;;;1.74;1.64;;;;;;;18.90;41.54;100577.62;;;;-51
2020/05/03 00:38:04;;;;;;;1.80;1.70;;;;;;;18.90;41.52;100579.19;;;;-51
2020/05/03 00:41:04;;;;;;;1.81;1.67;;;;;;;18.89;41.58;100580.59;;;;-51
2020/05/03 00:44:04;;;;;;;1.81;1.65;;;;;;;18.89;41.60;100580.91;;;;-51
2020/05/03 00:47:04;;;;;;;2.35;1.86;;;;;;;18.89;41.57;100576.63;;;;-51
2020/05/03 00:50:04;;;;;;;1.80;1.70;;;;;;;18.89;41.58;100584.49;;;;-51
2020/05/03 00:53:04;;;;;;;1.86;1.71;;;;;;;18.88;41.54;100589.67;;;;-51
2020/05/03 00:56:04;;;;;;;1.77;1.67;;;;;;;18.87;41.52;100588.85;;;;-51
2020/05/03 00:59:04;;;;;;;1.76;1.66;;;;;;;18.86;41.54;100591.52;;;;-51
2020/05/03 01:02:04;;;;;;;1.93;1.73;;;;;;;18.86;41.54;100589.47;;;;-51
2020/05/03 01:05:04;;;;;;;1.70;1.60;;;;;;;18.86;41.57;100591.81;;;;-51
2020/05/03 01:08:04;;;;;;;1.69;1.59;;;;;;;18.85;41.55;100598.23;;;;-51
2020/05/03 01:11:04;;;;;;;2.06;1.70;;;;;;;18.85;41.57;100601.47;;;;-51
2020/05/03 01:14:04;;;;;;;2.35;1.73;;;;;;;18.85;41.58;100603.81;;;;-51
2020/05/03 01:17:04;;;;;;;1.80;1.68;;;;;;;18.85;41.55;100600.53;;;;-51
2020/05/03 01:20:04;;;;;;;2.02;1.89;;;;;;;18.85;41.56;100601.97;;;;-51
2020/05/03 01:23:04;;;;;;;1.70;1.57;;;;;;;18.84;41.52;100600.19;;;;-51
2020/05/03 01:26:04;;;;;;;1.70;1.60;;;;;;;18.83;41.55;100603.59;;;;-51
2020/05/03 01:29:04;;;;;;;1.86;1.76;;;;;;;18.83;41.57;100607.66;;;;-51
2020/05/03 01:32:04;;;;;;;1.83;1.69;;;;;;;18.83;41.57;100608.00;;;;-51
2020/05/03 01:35:04;;;;;;;1.85;1.75;;;;;;;18.82;41.54;100608.95;;;;-51
2020/05/03 01:38:04;;;;;;;1.72;1.60;;;;;;;18.82;41.52;100607.78;;;;-51
2020/05/03 01:41:04;;;;;;;1.72;1.62;;;;;;;18.82;41.53;100611.59;;;;-51
2020/05/03 01:44:04;;;;;;;1.73;1.63;;;;;;;18.81;41.50;100610.37;;;;-51
2020/05/03 01:47:04;;;;;;;1.99;1.79;;;;;;;18.81;41.55;100613.42;;;;-51
2020/05/03 01:53:07;;;;;;;1.87;1.67;;;;;;;18.80;41.50;100617.72;;;;-51
2020/05/03 01:56:26;;;;;;;2.69;1.73;;;;;;;18.79;41.50;100619.95;;;;-51
2020/05/03 01:59:21;;;;;;;1.82;1.72;;;;;;;18.79;41.54;100626.14;;;;-51
2020/05/03 02:02:17;;;;;;;2.34;1.60;;;;;;;18.78;41.54;100626.83;;;;-51
2020/05/03 02:05:21;;;;;;;1.85;1.75;;;;;;;18.79;41.48;100631.73;;;;-51
2020/05/03 02:08:18;;;;;;;1.88;1.78;;;;;;;18.78;41.47;100633.17;;;;-52
2020/05/03 02:11:09;;;;;;;1.77;1.67;;;;;;;18.77;41.51;100632.06;;;;-51
2020/05/03 02:14:08;;;;;;;2.33;1.73;;;;;;;18.77;41.48;100637.22;;;;-51
2020/05/03 02:17:09;;;;;;;1.78;1.68;;;;;;;18.77;41.49;100634.88;;;;-51
2020/05/03 02:20:27;;;;;;;1.98;1.78;;;;;;;18.76;41.50;100632.69;;;;-51
2020/05/03 02:23:04;;;;;;;2.01;1.81;;;;;;;18.76;41.48;100632.58;;;;-54
2020/05/03 02:26:04;;;;;;;1.77;1.67;;;;;;;18.76;41.48;100627.73;;;;-55
2020/05/03 02:29:04;;;;;;;1.94;1.80;;;;;;;18.75;41.51;100632.70;;;;-53
2020/05/03 02:32:04;;;;;;;1.86;1.76;;;;;;;18.75;41.48;100634.70;;;;-55
2020/05/03 02:35:04;;;;;;;2.06;1.86;;;;;;;18.75;41.45;100633.70;;;;-53
2020/05/03 02:38:04;;;;;;;1.90;1.80;;;;;;;18.73;41.45;100633.04;;;;-53
2020/05/03 02:41:03;;;;;;;2.07;1.87;;;;;;;18.73;41.48;100640.63;;;;-53
2020/05/03 02:44:04;;;;;;;2.11;1.93;;;;;;;18.73;41.48;100645.09;;;;-53
2020/05/03 02:47:04;;;;;;;2.01;1.88;;;;;;;18.72;41.52;100642.86;;;;-55
2020/05/03 02:50:07;;;;;;;1.97;1.79;;;;;;;18.72;41.45;100648.72;;;;-53
2020/05/03 02:53:05;;;;;;;1.91;1.80;;;;;;;18.72;41.48;100654.20;;;;-54
2020/05/03 02:59:05;;;;;;;2.11;1.83;;;;;;;18.70;41.47;100656.98;;;;-53
2020/05/03 03:02:04;;;;;;;1.98;1.84;;;;;;;18.71;41.49;100659.42;;;;-53
2020/05/03 03:05:04;;;;;;;1.99;1.82;;;;;;;18.71;41.49;100666.95;;;;-53
2020/05/03 03:08:04;;;;;;;2.06;1.83;;;;;;;18.69;41.42;100668.80;;;;-53
2020/05/03 03:11:03;;;;;;;1.90;1.80;;;;;;;18.69;41.43;100673.31;;;;-54
2020/05/03 03:14:04;;;;;;;2.08;1.90;;;;;;;18.69;41.45;100677.16;;;;-53
2020/05/03 03:17:10;;;;;;;1.94;1.78;;;;;;;18.68;41.48;100679.95;;;;-53
2020/05/03 03:20:49;;;;;;;1.89;1.79;;;;;;;18.68;41.45;100683.13;;;;-55
2020/05/03 03:23:04;;;;;;;1.91;1.81;;;;;;;18.68;41.44;100687.21;;;;-53
2020/05/03 03:26:05;;;;;;;2.03;1.87;;;;;;;18.68;41.39;100690.66;;;;-53
2020/05/03 03:29:05;;;;;;;1.77;1.67;;;;;;;18.67;41.45;100690.18;;;;-55
2020/05/03 03:32:11;;;;;;;1.99;1.80;;;;;;;18.66;41.42;100692.23;;;;-53
2020/05/03 03:35:06;;;;;;;1.85;1.75;;;;;;;18.66;41.42;100693.06;;;;-55
2020/05/03 03:42:04;;;;;;;2.31;1.80;;;;;;;18.67;41.41;100692.52;;;;-55
2020/05/03 03:45:04;;;;;;;1.90;1.71;;;;;;;18.68;41.40;100691.89;;;;-53
2020/05/03 03:48:04;;;;;;;1.87;1.77;;;;;;;18.68;41.30;100698.03;;;;-53
2020/05/03 03:51:04;;;;;;;1.74;1.64;;;;;;;18.69;41.24;100700.98;;;;-54
2020/05/03 03:54:04;;;;;;;2.05;1.88;;;;;;;18.72;41.19;100701.75;;;;-54
2020/05/03 03:57:04;;;;;;;1.85;1.75;;;;;;;18.74;41.22;100706.70;;;;-52
2020/05/03 04:00:04;;;;;;;1.75;1.65;;;;;;;18.77;41.16;100707.26;;;;-53
2020/05/03 04:03:04;;;;;;;1.80;1.70;;;;;;;18.80;41.15;100706.07;;;;-54
2020/05/03 04:06:04;;;;;;;1.84;1.74;;;;;;;18.84;41.22;100704.83;;;;-54
2020/05/03 04:09:04;;;;;;;1.85;1.71;;;;;;;18.87;41.22;100700.80;;;;-54
2020/05/03 04:12:04;;;;;;;1.79;1.69;;;;;;;18.91;41.23;100701.34;;;;-53
2020/05/03 04:15:04;;;;;;;1.95;1.80;;;;;;;18.95;41.33;100706.73;;;;-53
2020/05/03 04:18:04;;;;;;;1.84;1.72;;;;;;;18.98;41.30;100707.78;;;;-53
2020/05/03 04:21:04;;;;;;;1.75;1.65;;;;;;;19.01;41.33;100710.55;;;;-53
2020/05/03 04:24:16;;;;;;;1.83;1.73;;;;;;;19.04;41.40;100709.83;;;;-53
2020/05/03 04:27:05;;;;;;;1.76;1.66;;;;;;;19.07;41.44;100716.00;;;;-53
2020/05/03 04:30:13;;;;;;;1.85;1.75;;;;;;;19.10;41.46;100715.91;;;;-53
2020/05/03 04:33:09;;;;;;;1.79;1.69;;;;;;;19.13;41.46;100723.39;;;;-54
2020/05/03 04:36:08;;;;;;;1.90;1.73;;;;;;;19.14;41.42;100723.46;;;;-53
2020/05/03 04:39:11;;;;;;;1.89;1.79;;;;;;;19.16;41.48;100726.91;;;;-55
2020/05/03 04:42:09;;;;;;;1.78;1.68;;;;;;;19.18;41.45;100726.50;;;;-53
2020/05/03 04:45:09;;;;;;;1.70;1.60;;;;;;;19.19;41.42;100725.28;;;;-53
2020/05/03 04:48:06;;;;;;;1.70;1.60;;;;;;;19.21;41.44;100729.06;;;;-54
2020/05/03 04:51:05;;;;;;;1.80;1.70;;;;;;;19.23;41.34;100736.42;;;;-53
2020/05/03 04:54:04;;;;;;;1.71;1.61;;;;;;;19.23;41.37;100738.37;;;;-53
2020/05/03 04:57:04;;;;;;;1.72;1.62;;;;;;;19.24;41.37;100739.50;;;;-53
2020/05/03 05:00:04;;;;;;;1.71;1.61;;;;;;;19.25;41.42;100740.88;;;;-53
2020/05/03 05:03:04;;;;;;;1.88;1.77;;;;;;;19.25;41.35;100744.89;;;;-53
2020/05/03 05:06:04;;;;;;;1.89;1.79;;;;;;;19.26;41.34;100748.63;;;;-53
2020/05/03 05:09:04;;;;;;;1.65;1.55;;;;;;;19.26;41.30;100751.98;;;;-53
2020/05/03 05:12:04;;;;;;;1.91;1.80;;;;;;;19.26;41.31;100755.17;;;;-53
2020/05/03 05:15:05;;;;;;;1.94;1.70;;;;;;;19.26;41.32;100757.18;;;;-53
2020/05/03 05:18:04;;;;;;;1.95;1.75;;;;;;;19.27;41.32;100757.22;;;;-54
2020/05/03 05:21:04;;;;;;;1.70;1.60;;;;;;;19.26;41.29;100756.78;;;;-53
2020/05/03 05:24:04;;;;;;;1.70;1.60;;;;;;;19.26;41.32;100752.16;;;;-53
2020/05/03 05:27:04;;;;;;;1.89;1.66;;;;;;;19.27;41.25;100753.53;;;;-53
2020/05/03 05:30:11;;;;;;;1.70;1.60;;;;;;;19.26;41.24;100757.44;;;;-53
2020/05/03 05:33:05;;;;;;;1.80;1.70;;;;;;;19.27;41.28;100758.89;;;;-53
2020/05/03 05:36:04;;;;;;;1.77;1.67;;;;;;;19.26;41.24;100759.86;;;;-54
2020/05/03 05:39:04;;;;;;;1.71;1.61;;;;;;;19.26;41.21;100764.14;;;;-53
2020/05/03 05:42:04;;;;;;;1.72;1.60;;;;;;;19.26;41.22;100765.81;;;;-55
2020/05/03 05:45:04;;;;;;;2.49;1.71;;;;;;;19.25;41.17;100765.10;;;;-53
2020/05/03 05:48:04;;;;;;;1.95;1.81;;;;;;;19.25;41.14;100765.43;;;;-53
2020/05/03 05:51:04;;;;;;;1.96;1.73;;;;;;;19.25;41.14;100768.00;;;;-53
2020/05/03 05:57:04;;;;;;;1.76;1.61;;;;;;;19.25;41.10;100780.39;;;;-53
2020/05/03 06:00:04;;;;;;;1.72;1.62;;;;;;;19.24;41.09;100781.80;;;;-53
2020/05/03 06:03:04;;;;;;;2.03;1.62;;;;;;;19.25;41.11;100788.09;;;;-54
2020/05/03 06:06:04;;;;;;;1.78;1.68;;;;;;;19.23;41.10;100786.27;;;;-54
2020/05/03 06:09:04;;;;;;;1.77;1.67;;;;;;;19.24;41.07;100787.15;;;;-53
2020/05/03 06:12:04;;;;;;;1.81;1.70;;;;;;;19.23;41.09;100787.17;;;;-55
2020/05/03 06:15:04;;;;;;;1.62;1.52;;;;;;;19.24;41.08;100792.06;;;;-52
2020/05/03 06:18:04;;;;;;;1.62;1.52;;;;;;;19.23;41.04;100790.28;;;;-53
2020/05/03 06:21:04;;;;;;;1.75;1.60;;;;;;;19.22;41.05;100789.73;;;;-53
2020/05/03 06:24:04;;;;;;;1.77;1.67;;;;;;;19.22;41.04;100790.91;;;;-55
2020/05/03 06:27:04;;;;;;;2.65;1.53;;;;;;;19.23;41.04;100794.62;;;;-55
2020/05/03 06:30:04;;;;;;;1.73;1.63;;;;;;;19.23;41.02;100800.66;;;;-53
2020/05/03 06:33:04;;;;;;;1.65;1.55;;;;;;;19.22;41.03;100800.17;;;;-53
2020/05/03 06:36:04;;;;;;;1.77;1.59;;;;;;;19.22;41.06;100804.13;;;;-52
2020/05/03 06:39:04;;;;;;;1.61;1.51;;;;;;;19.23;41.03;100806.85;;;;-53
2020/05/03 06:42:04;;;;;;;3.42;2.45;;;;;;;19.14;41.24;100812.59;;;;-54
2020/05/03 06:45:04;;;;;;;4.95;2.79;;;;;;;19.06;41.26;100813.47;;;;-52
2020/05/03 06:48:04;;;;;;;4.43;2.86;;;;;;;19.04;41.53;100809.75;;;;-57
2020/05/03 06:51:04;;;;;;;2.91;2.43;;;;;;;19.06;41.20;100808.40;;;;-57
2020/05/03 06:54:04;;;;;;;3.16;2.28;;;;;;;19.10;41.24;100810.84;;;;-57
2020/05/03 06:57:04;;;;;;;2.73;2.15;;;;;;;19.12;41.15;100815.12;;;;-58
2020/05/03 07:00:04;;;;;;;3.66;2.15;;;;;;;19.13;41.09;100819.73;;;;-57
2020/05/03 07:03:04;;;;;;;3.97;2.19;;;;;;;19.15;41.10;100826.59;;;;-56
2020/05/03 07:06:04;;;;;;;4.03;1.87;;;;;;;19.16;41.05;100828.33;;;;-58
2020/05/03 07:09:04;;;;;;;2.09;1.79;;;;;;;19.15;41.05;100825.97;;;;-56
2020/05/03 07:12:04;;;;;;;3.13;1.89;;;;;;;19.16;41.04;100827.72;;;;-56
2020/05/03 07:15:04;;;;;;;3.71;1.94;;;;;;;19.16;40.96;100833.18;;;;-56
2020/05/03 07:18:04;;;;;;;2.29;1.73;;;;;;;19.16;40.96;100829.38;;;;-58
2020/05/03 07:21:04;;;;;;;2.09;1.87;;;;;;;19.16;40.97;100832.57;;;;-64
2020/05/03 07:24:04;;;;;;;2.99;1.79;;;;;;;19.15;40.98;100827.31;;;;-64
2020/05/03 07:27:04;;;;;;;2.04;1.85;;;;;;;19.15;40.97;100827.44;;;;-62
2020/05/03 07:30:04;;;;;;;2.37;1.80;;;;;;;19.16;40.94;100831.23;;;;-61
2020/05/03 07:33:04;;;;;;;2.22;1.76;;;;;;;19.14;40.95;100831.95;;;;-62
2020/05/03 07:36:04;;;;;;;2.01;1.76;;;;;;;19.14;40.91;100828.77;;;;-63
2020/05/03 07:39:04;;;;;;;4.58;1.81;;;;;;;19.14;40.94;100827.28;;;;-63
2020/05/03 07:42:04;;;;;;;1.93;1.76;;;;;;;19.13;40.94;100823.28;;;;-63
2020/05/03 07:45:04;;;;;;;1.81;1.69;;;;;;;19.12;40.95;100823.94;;;;-62
2020/05/03 07:48:04;;;;;;;2.59;1.83;;;;;;;19.13;41.01;100825.69;;;;-62
2020/05/03 07:51:04;;;;;;;2.04;1.83;;;;;;;19.12;40.93;100829.47;;;;-62
2020/05/03 07:54:04;;;;;;;1.73;1.63;;;;;;;19.11;40.94;100831.66;;;;-63
2020/05/03 07:57:04;;;;;;;2.62;1.81;;;;;;;19.12;41.12;100833.70;;;;-51
2020/05/03 08:00:04;;;;;;;1.96;1.69;;;;;;;19.12;41.54;100831.98;;;;-56
2020/05/03 08:03:04;;;;;;;2.12;1.69;;;;;;;19.14;41.64;100839.33;;;;-52
2020/05/03 08:06:04;;;;;;;2.21;1.80;;;;;;;19.16;41.55;100846.30;;;;-61
2020/05/03 08:09:04;;;;;;;1.80;1.70;;;;;;;19.16;41.57;100845.80;;;;-62
2020/05/03 08:12:04;;;;;;;1.99;1.74;;;;;;;19.17;41.61;100847.13;;;;-62
2020/05/03 08:15:04;;;;;;;2.07;1.69;;;;;;;19.18;41.81;100851.53;;;;-53
2020/05/03 08:18:04;;;;;;;2.93;1.69;;;;;;;19.19;41.84;100850.91;;;;-52
2020/05/03 08:21:04;;;;;;;1.93;1.71;;;;;;;19.20;41.88;100864.30;;;;-53
2020/05/03 08:24:04;;;;;;;1.73;1.63;;;;;;;19.20;41.78;100861.13;;;;-54
2020/05/03 08:27:04;;;;;;;5.97;1.79;;;;;;;19.20;41.83;100860.29;;;;-60
2020/05/03 08:30:04;;;;;;;1.62;1.52;;;;;;;19.22;41.86;100867.65;;;;-60
2020/05/03 08:33:04;;;;;;;1.95;1.65;;;;;;;19.23;41.80;100861.67;;;;-57
2020/05/03 08:36:04;;;;;;;2.01;1.73;;;;;;;19.22;41.81;100854.03;;;;-55
2020/05/03 08:39:04;;;;;;;2.14;1.77;;;;;;;19.24;41.83;100853.47;;;;-51
2020/05/03 08:42:04;;;;;;;2.45;1.70;;;;;;;19.23;41.88;100851.23;;;;-53
2020/05/03 08:45:04;;;;;;;2.01;1.57;;;;;;;19.22;41.86;100853.36;;;;-52
2020/05/03 08:51:04;;;;;;;2.97;1.72;;;;;;;19.21;41.69;100857.22;;;;-52
2020/05/03 08:54:04;;;;;;;1.71;1.61;;;;;;;19.21;41.68;100852.81;;;;-52
2020/05/03 08:57:04;;;;;;;1.93;1.67;;;;;;;19.20;41.63;100854.75;;;;-52
2020/05/03 09:00:04;;;;;;;2.68;1.76;;;;;;;19.20;41.58;100857.50;;;;-52
2020/05/03 09:03:04;;;;;;;1.71;1.60;;;;;;;19.19;41.54;100857.22;;;;-52
2020/05/03 09:09:12;;;;;;;2.07;1.73;;;;;;;19.19;41.52;100849.95;;;;-52
2020/05/03 09:12:07;;;;;;;1.70;1.60;;;;;;;19.18;41.59;100846.45;;;;-52
2020/05/03 09:15:04;;;;;;;3.63;1.60;;;;;;;19.20;41.71;100847.05;;;;-53
2020/05/03 09:18:04;;;;;;;2.47;1.73;;;;;;;19.21;41.82;100841.42;;;;-53
2020/05/03 09:21:04;;;;;;;2.22;1.64;;;;;;;19.21;41.82;100838.23;;;;-52
2020/05/03 09:24:04;;;;;;;2.19;1.59;;;;;;;19.23;41.81;100835.22;;;;-53
2020/05/03 09:27:04;;;;;;;1.99;1.63;;;;;;;19.24;41.83;100831.76;;;;-55
2020/05/03 09:30:04;;;;;;;1.74;1.62;;;;;;;19.24;41.83;100832.26;;;;-51
2020/05/03 09:33:04;;;;;;;2.61;1.81;;;;;;;19.24;41.77;100823.66;;;;-57
2020/05/03 09:36:04;;;;;;;1.94;1.61;;;;;;;19.23;41.77;100822.59;;;;-58
2020/05/03 09:39:04;;;;;;;1.69;1.53;;;;;;;19.21;41.73;100826.19;;;;-58
2020/05/03 09:42:04;;;;;;;2.22;1.59;;;;;;;19.21;41.68;100826.85;;;;-58
2020/05/03 09:45:04;;;;;;;1.87;1.61;;;;;;;19.22;41.68;100827.30;;;;-63
2020/05/03 09:48:04;;;;;;;2.97;1.67;;;;;;;19.21;41.59;100831.26;;;;-64
2020/05/03 09:51:04;;;;;;;2.29;1.64;;;;;;;19.20;41.53;100826.35;;;;-64
2020/05/03 09:54:03;;;;;;;2.02;1.60;;;;;;;19.20;41.55;100827.20;;;;-65
2020/05/03 09:57:04;;;;;;;4.50;1.71;;;;;;;19.21;41.58;100830.88;;;;-57
2020/05/03 10:00:04;;;;;;;3.07;1.65;;;;;;;19.23;41.82;100825.94;;;;-51
2020/05/03 10:03:04;;;;;;;4.23;1.68;;;;;;;19.25;41.89;100820.19;;;;-57
2020/05/03 10:06:04;;;;;;;3.89;1.57;;;;;;;19.25;41.91;100826.05;;;;-59
2020/05/03 10:09:04;;;;;;;1.83;1.55;;;;;;;19.25;41.96;100820.53;;;;-54
2020/05/03 10:12:04;;;;;;;3.16;1.59;;;;;;;19.27;42.00;100835.25;;;;-60
2020/05/03 10:15:04;;;;;;;3.40;1.70;;;;;;;19.28;42.02;100837.83;;;;-56
2020/05/03 10:18:04;;;;;;;2.25;1.65;;;;;;;19.27;42.07;100835.37;;;;-53
2020/05/03 10:21:04;;;;;;;3.59;1.65;;;;;;;19.29;42.04;100832.85;;;;-53
2020/05/03 10:24:04;;;;;;;3.46;1.91;;;;;;;19.28;42.03;100829.55;;;;-56
2020/05/03 10:27:04;;;;;;;4.02;1.69;;;;;;;19.29;41.98;100820.36;;;;-54
2020/05/03 10:30:04;;;;;;;2.10;1.51;;;;;;;19.30;41.97;100824.70;;;;-61
2020/05/03 10:33:04;;;;;;;3.71;1.53;;;;;;;19.30;41.88;100838.77;;;;-61
2020/05/03 10:36:04;;;;;;;2.69;1.72;;;;;;;19.29;41.81;100838.11;;;;-61
2020/05/03 10:39:04;;;;;;;2.06;1.65;;;;;;;19.28;41.78;100833.46;;;;-61
2020/05/03 10:42:03;;;;;;;2.18;1.63;;;;;;;19.27;41.67;100830.07;;;;-61
2020/05/03 10:45:04;;;;;;;3.22;1.61;;;;;;;19.26;41.69;100824.77;;;;-61
2020/05/03 10:48:04;;;;;;;2.39;1.57;;;;;;;19.26;41.69;100826.94;;;;-61
2020/05/03 10:51:04;;;;;;;2.01;1.61;;;;;;;19.25;41.63;100830.23;;;;-61
2020/05/03 10:54:04;;;;;;;1.76;1.65;;;;;;;19.24;41.62;100822.98;;;;-61
2020/05/03 10:57:04;;;;;;;5.18;1.63;;;;;;;19.24;41.59;100817.45;;;;-61
2020/05/03 11:00:04;;;;;;;2.17;1.50;;;;;;;19.22;41.52;100818.77;;;;-61
2020/05/03 11:03:04;;;;;;;2.15;1.59;;;;;;;19.22;41.53;100811.48;;;;-61
2020/05/03 11:06:04;;;;;;;4.67;1.70;;;;;;;19.22;41.52;100813.91;;;;-60
2020/05/03 11:09:04;;;;;;;1.67;1.55;;;;;;;19.21;41.50;100812.69;;;;-61
2020/05/03 11:12:04;;;;;;;2.38;1.60;;;;;;;19.21;41.48;100809.94;;;;-62
2020/05/03 11:15:04;;;;;;;1.68;1.46;;;;;;;19.21;41.44;100805.64;;;;-61
2020/05/03 11:18:04;;;;;;;2.69;1.60;;;;;;;19.20;41.39;100802.86;;;;-61
2020/05/03 11:21:04;;;;;;;2.90;1.59;;;;;;;19.20;41.40;100809.28;;;;-60
2020/05/03 11:24:04;;;;;;;1.65;1.51;;;;;;;19.19;41.37;100815.53;;;;-61
2020/05/03 11:27:04;;;;;;;4.67;1.66;;;;;;;19.19;41.38;100809.00;;;;-61
2020/05/03 11:30:04;;;;;;;2.69;1.69;;;;;;;19.20;41.32;100803.75;;;;-61
2020/05/03 11:33:04;;;;;;;2.09;1.60;;;;;;;19.19;41.30;100803.64;;;;-64
2020/05/03 11:36:04;;;;;;;1.71;1.60;;;;;;;19.18;41.29;100803.59;;;;-64
2020/05/03 11:39:04;;;;;;;1.81;1.51;;;;;;;19.18;41.28;100806.77;;;;-64
2020/05/03 11:42:04;;;;;;;1.88;1.50;;;;;;;19.18;41.23;100805.38;;;;-64
2020/05/03 11:45:04;;;;;;;1.59;1.49;;;;;;;19.18;41.20;100801.74;;;;-63
2020/05/03 11:48:04;;;;;;;2.31;1.46;;;;;;;19.17;41.16;100793.93;;;;-64
2020/05/03 11:51:04;;;;;;;2.01;1.50;;;;;;;19.18;41.15;100790.92;;;;-63
2020/05/03 11:54:04;;;;;;;2.13;1.47;;;;;;;19.18;41.16;100796.95;;;;-64
2020/05/03 11:57:04;;;;;;;1.61;1.47;;;;;;;19.17;41.16;100790.03;;;;-64
2020/05/03 12:00:04;;;;;;;2.04;1.51;;;;;;;19.17;41.13;100790.58;;;;-64
2020/05/03 12:03:04;;;;;;;1.85;1.61;;;;;;;19.18;41.11;100787.47;;;;-64
2020/05/03 12:06:04;;;;;;;1.79;1.43;;;;;;;19.16;41.14;100784.33;;;;-64
2020/05/03 12:09:04;;;;;;;1.95;1.47;;;;;;;19.16;41.10;100783.35;;;;-61
2020/05/03 12:12:04;;;;;;;1.75;1.38;;;;;;;19.16;41.12;100781.84;;;;-61
2020/05/03 12:15:04;;;;;;;1.50;1.40;;;;;;;19.16;41.10;100777.59;;;;-61
2020/05/03 12:18:12;;;;;;;1.80;1.45;;;;;;;19.15;41.14;100767.04;;;;-51
2020/05/03 12:21:04;;;;;;;1.50;1.40;;;;;;;19.18;41.27;100758.72;;;;-51
2020/05/03 12:24:04;;;;;;;2.28;1.50;;;;;;;19.18;41.27;100753.98;;;;-59
2020/05/03 12:27:04;;;;;;;3.69;1.39;;;;;;;19.20;41.26;100752.69;;;;-52
2020/05/03 12:30:04;;;;;;;2.40;1.49;;;;;;;19.20;41.33;100754.19;;;;-54
2020/05/03 12:33:04;;;;;;;1.75;1.49;;;;;;;19.20;41.48;100745.27;;;;-51
2020/05/03 12:36:04;;;;;;;1.48;1.38;;;;;;;19.22;41.50;100744.85;;;;-55
2020/05/03 12:39:04;;;;;;;2.04;1.51;;;;;;;19.23;41.47;100742.28;;;;-52
2020/05/03 12:42:04;;;;;;;3.07;1.47;;;;;;;19.22;41.43;100738.89;;;;-51
2020/05/03 12:45:04;;;;;;;1.71;1.42;;;;;;;19.22;41.34;100731.63;;;;-52
2020/05/03 12:48:04;;;;;;;2.04;1.47;;;;;;;19.21;41.35;100731.08;;;;-52
2020/05/03 12:51:04;;;;;;;1.43;1.33;;;;;;;19.21;41.34;100731.58;;;;-52
2020/05/03 12:54:04;;;;;;;2.57;1.40;;;;;;;19.21;41.29;100734.92;;;;-52
2020/05/03 12:57:04;;;;;;;2.24;1.41;;;;;;;19.20;41.28;100729.35;;;;-56
2020/05/03 13:00:04;;;;;;;2.26;1.40;;;;;;;19.19;41.25;100730.58;;;;-55
2020/05/03 13:03:04;;;;;;;1.59;1.49;;;;;;;19.19;41.27;100734.98;;;;-56
2020/05/03 13:06:04;;;;;;;1.43;1.33;;;;;;;19.19;41.24;100724.94;;;;-56
2020/05/03 13:09:03;;;;;;;2.65;1.63;;;;;;;19.19;41.23;100719.65;;;;-56
2020/05/03 13:12:04;;;;;;;2.31;1.61;;;;;;;19.18;41.16;100714.34;;;;-56
2020/05/03 13:15:04;;;;;;;1.50;1.40;;;;;;;19.17;41.17;100715.91;;;;-54
2020/05/03 13:18:04;;;;;;;1.75;1.51;;;;;;;19.17;41.10;100719.92;;;;-54
2020/05/03 13:21:04;;;;;;;1.51;1.33;;;;;;;19.17;41.10;100721.27;;;;-54
2020/05/03 13:24:04;;;;;;;1.48;1.35;;;;;;;19.17;41.13;100722.84;;;;-56
2020/05/03 13:27:04;;;;;;;1.43;1.33;;;;;;;19.17;41.08;100718.31;;;;-48
2020/05/03 13:30:03;;;;;;;1.53;1.40;;;;;;;19.16;41.04;100715.69;;;;-49
2020/05/03 13:33:04;;;;;;;1.79;1.39;;;;;;;19.16;41.04;100715.92;;;;-48
2020/05/03 13:36:04;;;;;;;1.75;1.35;;;;;;;19.16;41.12;100710.45;;;;-48
2020/05/03 13:39:07;;;;;;;1.61;1.42;;;;;;;19.15;41.07;100700.91;;;;-48
2020/05/03 13:42:10;;;;;;;2.87;1.44;;;;;;;19.15;41.04;100694.87;;;;-54
2020/05/03 13:45:04;;;;;;;1.81;1.47;;;;;;;19.15;41.05;100691.59;;;;-54
2020/05/03 13:48:04;;;;;;;1.49;1.29;;;;;;;19.15;41.06;100690.72;;;;-54
2020/05/03 13:54:13;;;;;;;1.53;1.35;;;;;;;19.13;41.05;100683.73;;;;-54
2020/05/03 13:57:04;;;;;;;1.87;1.38;;;;;;;19.13;41.04;100676.03;;;;-54
2020/05/03 14:00:04;;;;;;;1.89;1.25;;;;;;;19.13;41.03;100668.66;;;;-54
2020/05/03 14:03:04;;;;;;;1.54;1.36;;;;;;;19.14;41.03;100675.09;;;;-54
2020/05/03 14:06:04;;;;;;;1.50;1.39;;;;;;;19.13;40.98;100675.19;;;;-54
2020/05/03 14:09:04;;;;;;;3.64;1.53;;;;;;;19.13;41.21;100677.70;;;;-56
2020/05/03 14:12:04;;;;;;;6.10;1.48;;;;;;;19.15;41.41;100677.43;;;;-52
2020/05/03 14:15:04;;;;;;;5.71;1.50;;;;;;;19.16;41.36;100669.00;;;;-55
2020/05/03 14:18:04;;;;;;;2.70;1.42;;;;;;;19.17;41.50;100668.31;;;;-58
2020/05/03 14:21:04;;;;;;;1.40;1.30;;;;;;;19.17;41.49;100666.86;;;;-56
2020/05/03 14:24:04;;;;;;;1.40;1.30;;;;;;;19.18;41.53;100668.37;;;;-58
2020/05/03 14:27:04;;;;;;;1.41;1.30;;;;;;;19.20;41.58;100671.31;;;;-60
2020/05/03 14:30:04;;;;;;;2.41;1.41;;;;;;;19.20;41.76;100672.31;;;;-51
2020/05/03 14:33:04;;;;;;;2.51;1.51;;;;;;;19.21;41.83;100670.63;;;;-53
2020/05/03 14:36:04;;;;;;;2.10;1.40;;;;;;;19.22;41.73;100668.06;;;;-51
2020/05/03 14:39:04;;;;;;;1.57;1.21;;;;;;;19.23;41.84;100667.94;;;;-52
2020/05/03 14:42:04;;;;;;;3.02;1.43;;;;;;;19.23;41.84;100669.73;;;;-57
2020/05/03 14:45:04;;;;;;;2.55;1.40;;;;;;;19.25;41.86;100663.52;;;;-58
2020/05/03 14:48:04;;;;;;;3.26;1.39;;;;;;;19.27;41.78;100659.77;;;;-53
2020/05/03 14:51:04;;;;;;;2.26;1.40;;;;;;;19.27;41.83;100662.28;;;;-53
2020/05/03 14:54:04;;;;;;;2.79;1.33;;;;;;;19.28;41.88;100661.83;;;;-52
2020/05/03 14:57:04;;;;;;;1.83;1.30;;;;;;;19.28;41.90;100663.23;;;;-54
2020/05/03 15:00:04;;;;;;;2.69;1.39;;;;;;;19.28;41.85;100662.50;;;;-56
2020/05/03 15:03:04;;;;;;;2.23;1.31;;;;;;;19.30;41.81;100664.04;;;;-56
2020/05/03 15:06:04;;;;;;;1.44;1.29;;;;;;;19.31;41.83;100655.78;;;;-56
2020/05/03 15:09:03;;;;;;;1.34;1.19;;;;;;;19.31;41.79;100656.11;;;;-57
2020/05/03 15:12:04;;;;;;;1.39;1.29;;;;;;;19.31;41.80;100662.48;;;;-57
2020/05/03 15:15:04;;;;;;;1.97;1.39;;;;;;;19.30;41.81;100657.67;;;;-60
2020/05/03 15:18:04;;;;;;;1.80;1.31;;;;;;;19.31;41.92;100655.88;;;;-56
2020/05/03 15:21:04;;;;;;;1.39;1.20;;;;;;;19.32;41.94;100651.74;;;;-55
2020/05/03 15:24:04;;;;;;;1.46;1.23;;;;;;;19.33;41.91;100661.13;;;;-55
2020/05/03 15:27:04;;;;;;;1.40;1.30;;;;;;;19.34;41.86;100661.27;;;;-57
2020/05/03 15:30:04;;;;;;;1.43;1.33;;;;;;;19.33;41.85;100666.77;;;;-53
2020/05/03 15:33:04;;;;;;;3.07;1.40;;;;;;;19.34;41.91;100666.20;;;;-56
2020/05/03 15:36:04;;;;;;;1.41;1.31;;;;;;;19.35;41.89;100670.20;;;;-53
2020/05/03 15:39:04;;;;;;;1.66;1.27;;;;;;;19.36;41.88;100659.70;;;;-54
2020/05/03 15:42:04;;;;;;;2.38;1.32;;;;;;;19.36;41.90;100656.31;;;;-52
2020/05/03 15:45:04;;;;;;;1.89;1.30;;;;;;;19.37;41.86;100660.55;;;;-59
2020/05/03 15:48:04;;;;;;;6.45;1.39;;;;;;;19.37;41.88;100657.74;;;;-52
2020/05/03 15:51:04;;;;;;;1.46;1.31;;;;;;;19.37;41.84;100658.52;;;;-58
2020/05/03 15:54:04;;;;;;;5.80;1.32;;;;;;;19.37;41.90;100657.58;;;;-59
2020/05/03 15:57:03;;;;;;;1.37;1.28;;;;;;;19.37;41.88;100653.55;;;;-52
2020/05/03 16:00:04;;;;;;;1.65;1.23;;;;;;;19.38;41.84;100648.98;;;;-52
2020/05/03 16:03:04;;;;;;;2.26;1.28;;;;;;;19.38;41.92;100644.50;;;;-53
2020/05/03 16:06:04;;;;;;;2.59;1.23;;;;;;;19.39;41.94;100644.88;;;;-57
2020/05/03 16:09:04;;;;;;;1.89;1.30;;;;;;;19.40;41.92;100646.79;;;;-55
2020/05/03 16:12:04;;;;;;;1.57;1.37;;;;;;;19.40;41.86;100643.65;;;;-57
2020/05/03 16:15:04;;;;;;;1.88;1.31;;;;;;;19.40;41.92;100644.28;;;;-64
2020/05/03 16:18:04;;;;;;;1.79;1.33;;;;;;;19.40;41.95;100638.92;;;;-55
2020/05/03 16:21:04;;;;;;;4.23;1.35;;;;;;;19.41;41.92;100634.22;;;;-55
2020/05/03 16:24:04;;;;;;;1.35;1.25;;;;;;;19.41;41.86;100630.20;;;;-56
2020/05/03 16:27:04;;;;;;;1.30;1.20;;;;;;;19.41;41.92;100632.27;;;;-56
2020/05/03 16:30:04;;;;;;;1.30;1.20;;;;;;;19.41;41.90;100643.47;;;;-59
2020/05/03 16:33:04;;;;;;;1.49;1.35;;;;;;;19.42;41.90;100644.64;;;;-57
2020/05/03 16:36:04;;;;;;;1.41;1.31;;;;;;;19.41;41.88;100634.98;;;;-58
2020/05/03 16:39:04;;;;;;;2.10;1.42;;;;;;;19.42;41.87;100628.91;;;;-56
2020/05/03 16:42:04;;;;;;;2.09;1.34;;;;;;;19.42;41.87;100623.44;;;;-59
2020/05/03 16:45:04;;;;;;;1.40;1.30;;;;;;;19.42;41.89;100627.73;;;;-57
2020/05/03 16:48:04;;;;;;;1.35;1.20;;;;;;;19.42;41.87;100632.66;;;;-56
2020/05/03 16:51:04;;;;;;;1.40;1.30;;;;;;;19.41;41.95;100632.58;;;;-56
2020/05/03 16:54:04;;;;;;;1.30;1.17;;;;;;;19.42;41.84;100632.02;;;;-54
2020/05/03 16:57:04;;;;;;;1.33;1.20;;;;;;;19.44;41.85;100640.39;;;;-59
2020/05/03 17:00:04;;;;;;;1.55;1.31;;;;;;;19.44;41.86;100632.84;;;;-57
2020/05/03 17:03:04;;;;;;;1.17;1.10;;;;;;;19.44;41.88;100630.50;;;;-53
2020/05/03 17:06:04;;;;;;;1.91;1.30;;;;;;;19.43;41.83;100626.04;;;;-62